sensor_id;sensor_type;location;lat;lon;timestamp;P1;durP1;ratioP1;P2;durP2;ratioP2
12976;SDS011;6553;48.412;9.514;2022-09-17T00:01:05;1.67;;;0.93;;
12976;SDS011;6553;48.412;9.514;2022-09-17T00:03:32;1.20;;;0.90;;
12976;SDS011;6553;48.412;9.514;2022-09-17T00:06:00;0.80;;;0.80;;
12976;SDS011;6553;48.412;9.514;2022-09-17T00:08:32;0.60;;;0.60;;
12976;SDS011;6553;48.412;9.514;2022-09-17T00:11:21;1.75;;;0.80;;
12976;SDS011;6553;48.412;9.514;2022-09-17T00:13:51;0.80;;;0.80;;
12976;SDS011;6553;48.412;9.514;2022-09-17T00:16:26;0.60;;;0.60;;
12976;SDS011;6553;48.412;9.514;2022-09-17T00:19:04;0.70;;;0.70;;
12976;SDS011;6553;48.412;9.514;2022-09-17T00:21:33;0.77;;;0.77;;
12976;SDS011;6553;48.412;9.514;2022-09-17T00:24:00;0.82;;;0.68;;
12976;SDS011;6553;48.412;9.514;2022-09-17T00:26:30;0.60;;;0.60;;
12976;SDS011;6553;48.412;9.514;2022-09-17T00:28:58;0.85;;;0.85;;
12976;SDS011;6553;48.412;9.514;2022-09-17T00:31:25;0.70;;;0.70;;
12976;SDS011;6553;48.412;9.514;2022-09-17T00:33:53;0.47;;;0.47;;
12976;SDS011;6553;48.412;9.514;2022-09-17T00:36:19;1.23;;;0.85;;
12976;SDS011;6553;48.412;9.514;2022-09-17T00:38:49;0.82;;;0.70;;
12976;SDS011;6553;48.412;9.514;2022-09-17T00:41:18;0.80;;;0.80;;
12976;SDS011;6553;48.412;9.514;2022-09-17T00:43:47;0.52;;;0.52;;
12976;SDS011;6553;48.412;9.514;2022-09-17T00:52:05;0.60;;;0.60;;
12976;SDS011;6553;48.412;9.514;2022-09-17T00:54:37;0.50;;;0.50;;
12976;SDS011;6553;48.412;9.514;2022-09-17T00:57:07;0.50;;;0.50;;
12976;SDS011;6553;48.412;9.514;2022-09-17T00:59:33;0.75;;;0.70;;
12976;SDS011;6553;48.412;9.514;2022-09-17T01:02:00;0.60;;;0.60;;
12976;SDS011;6553;48.412;9.514;2022-09-17T01:04:27;0.60;;;0.60;;
12976;SDS011;6553;48.412;9.514;2022-09-17T01:36:00;0.60;;;0.55;;
12976;SDS011;6553;48.412;9.514;2022-09-17T01:41:42;0.60;;;0.60;;
12976;SDS011;6553;48.412;9.514;2022-09-17T01:50:28;1.98;;;0.90;;
12976;SDS011;6553;48.412;9.514;2022-09-17T01:53:02;0.60;;;0.60;;
12976;SDS011;6553;48.412;9.514;2022-09-17T01:55:32;0.50;;;0.50;;
12976;SDS011;6553;48.412;9.514;2022-09-17T01:58:09;0.70;;;0.70;;
12976;SDS011;6553;48.412;9.514;2022-09-17T02:00:54;0.65;;;0.65;;
12976;SDS011;6553;48.412;9.514;2022-09-17T02:03:29;0.93;;;0.90;;
12976;SDS011;6553;48.412;9.514;2022-09-17T02:06:09;0.95;;;0.80;;
12976;SDS011;6553;48.412;9.514;2022-09-17T02:08:59;0.70;;;0.70;;
12976;SDS011;6553;48.412;9.514;2022-09-17T02:11:33;0.77;;;0.50;;
12976;SDS011;6553;48.412;9.514;2022-09-17T02:14:04;0.77;;;0.52;;
12976;SDS011;6553;48.412;9.514;2022-09-17T02:16:47;0.60;;;0.60;;
12976;SDS011;6553;48.412;9.514;2022-09-17T02:19:23;0.70;;;0.70;;
12976;SDS011;6553;48.412;9.514;2022-09-17T02:22:20;0.70;;;0.70;;
12976;SDS011;6553;48.412;9.514;2022-09-17T02:30:59;0.60;;;0.60;;
12976;SDS011;6553;48.412;9.514;2022-09-17T02:33:25;0.60;;;0.60;;
12976;SDS011;6553;48.412;9.514;2022-09-17T02:35:54;0.43;;;0.43;;
12976;SDS011;6553;48.412;9.514;2022-09-17T02:38:21;0.60;;;0.60;;
12976;SDS011;6553;48.412;9.514;2022-09-17T02:40:52;0.45;;;0.45;;
12976;SDS011;6553;48.412;9.514;2022-09-17T02:46:41;0.43;;;0.43;;
12976;SDS011;6553;48.412;9.514;2022-09-17T03:01:48;0.50;;;0.50;;
12976;SDS011;6553;48.412;9.514;2022-09-17T03:04:31;0.63;;;0.60;;
12976;SDS011;6553;48.412;9.514;2022-09-17T03:06:59;0.75;;;0.75;;
12976;SDS011;6553;48.412;9.514;2022-09-17T03:09:34;0.40;;;0.40;;
12976;SDS011;6553;48.412;9.514;2022-09-17T03:12:00;0.88;;;0.70;;
12976;SDS011;6553;48.412;9.514;2022-09-17T03:14:26;0.50;;;0.43;;
12976;SDS011;6553;48.412;9.514;2022-09-17T03:16:52;0.45;;;0.45;;
12976;SDS011;6553;48.412;9.514;2022-09-17T03:19:18;0.60;;;0.60;;
12976;SDS011;6553;48.412;9.514;2022-09-17T03:21:43;0.40;;;0.40;;
12976;SDS011;6553;48.412;9.514;2022-09-17T03:24:09;0.47;;;0.47;;
12976;SDS011;6553;48.412;9.514;2022-09-17T03:26:37;0.50;;;0.50;;
12976;SDS011;6553;48.412;9.514;2022-09-17T03:29:03;0.52;;;0.52;;
12976;SDS011;6553;48.412;9.514;2022-09-17T03:31:29;0.82;;;0.55;;
12976;SDS011;6553;48.412;9.514;2022-09-17T03:33:55;0.70;;;0.70;;
12976;SDS011;6553;48.412;9.514;2022-09-17T03:36:21;0.75;;;0.60;;
12976;SDS011;6553;48.412;9.514;2022-09-17T03:38:46;0.45;;;0.45;;
12976;SDS011;6553;48.412;9.514;2022-09-17T03:41:12;0.50;;;0.50;;
12976;SDS011;6553;48.412;9.514;2022-09-17T03:43:38;1.13;;;0.60;;
12976;SDS011;6553;48.412;9.514;2022-09-17T03:46:04;0.68;;;0.50;;
12976;SDS011;6553;48.412;9.514;2022-09-17T03:48:30;1.05;;;0.60;;
12976;SDS011;6553;48.412;9.514;2022-09-17T03:50:59;0.80;;;0.63;;
12976;SDS011;6553;48.412;9.514;2022-09-17T03:53:25;0.60;;;0.60;;
12976;SDS011;6553;48.412;9.514;2022-09-17T03:55:51;0.70;;;0.70;;
12976;SDS011;6553;48.412;9.514;2022-09-17T03:58:16;0.82;;;0.60;;
12976;SDS011;6553;48.412;9.514;2022-09-17T04:00:42;0.75;;;0.65;;
12976;SDS011;6553;48.412;9.514;2022-09-17T04:03:08;0.65;;;0.65;;
12976;SDS011;6553;48.412;9.514;2022-09-17T04:05:35;0.70;;;0.70;;
12976;SDS011;6553;48.412;9.514;2022-09-17T04:08:00;0.70;;;0.70;;
12976;SDS011;6553;48.412;9.514;2022-09-17T04:10:26;0.90;;;0.60;;
12976;SDS011;6553;48.412;9.514;2022-09-17T04:12:53;0.60;;;0.60;;
12976;SDS011;6553;48.412;9.514;2022-09-17T04:15:19;0.88;;;0.70;;
12976;SDS011;6553;48.412;9.514;2022-09-17T04:17:44;0.70;;;0.70;;
12976;SDS011;6553;48.412;9.514;2022-09-17T04:20:10;0.60;;;0.60;;
12976;SDS011;6553;48.412;9.514;2022-09-17T04:22:36;0.60;;;0.60;;
12976;SDS011;6553;48.412;9.514;2022-09-17T04:25:01;0.90;;;0.75;;
12976;SDS011;6553;48.412;9.514;2022-09-17T04:27:27;0.70;;;0.70;;
12976;SDS011;6553;48.412;9.514;2022-09-17T04:29:53;0.60;;;0.60;;
12976;SDS011;6553;48.412;9.514;2022-09-17T04:32:19;0.50;;;0.50;;
12976;SDS011;6553;48.412;9.514;2022-09-17T04:34:44;0.90;;;0.70;;
12976;SDS011;6553;48.412;9.514;2022-09-17T04:37:10;1.02;;;0.50;;
12976;SDS011;6553;48.412;9.514;2022-09-17T04:39:36;0.47;;;0.40;;
12976;SDS011;6553;48.412;9.514;2022-09-17T04:42:02;1.02;;;0.60;;
12976;SDS011;6553;48.412;9.514;2022-09-17T04:44:28;0.47;;;0.47;;
12976;SDS011;6553;48.412;9.514;2022-09-17T04:46:54;0.50;;;0.50;;
12976;SDS011;6553;48.412;9.514;2022-09-17T04:49:20;0.70;;;0.47;;
12976;SDS011;6553;48.412;9.514;2022-09-17T04:51:46;0.70;;;0.70;;
12976;SDS011;6553;48.412;9.514;2022-09-17T04:54:12;0.90;;;0.60;;
12976;SDS011;6553;48.412;9.514;2022-09-17T04:56:38;0.75;;;0.50;;
12976;SDS011;6553;48.412;9.514;2022-09-17T04:59:04;0.80;;;0.50;;
12976;SDS011;6553;48.412;9.514;2022-09-17T05:01:30;1.92;;;0.70;;
12976;SDS011;6553;48.412;9.514;2022-09-17T05:03:55;0.70;;;0.70;;
12976;SDS011;6553;48.412;9.514;2022-09-17T05:06:21;0.63;;;0.60;;
12976;SDS011;6553;48.412;9.514;2022-09-17T05:08:47;0.73;;;0.73;;
12976;SDS011;6553;48.412;9.514;2022-09-17T05:11:13;0.60;;;0.50;;
12976;SDS011;6553;48.412;9.514;2022-09-17T05:13:38;0.70;;;0.68;;
12976;SDS011;6553;48.412;9.514;2022-09-17T05:16:04;1.05;;;0.50;;
12976;SDS011;6553;48.412;9.514;2022-09-17T05:18:30;1.20;;;0.75;;
12976;SDS011;6553;48.412;9.514;2022-09-17T05:20:55;0.60;;;0.45;;
12976;SDS011;6553;48.412;9.514;2022-09-17T05:23:21;0.65;;;0.50;;
12976;SDS011;6553;48.412;9.514;2022-09-17T05:25:47;0.85;;;0.60;;
12976;SDS011;6553;48.412;9.514;2022-09-17T05:28:13;0.60;;;0.60;;
12976;SDS011;6553;48.412;9.514;2022-09-17T05:30:38;0.55;;;0.55;;
12976;SDS011;6553;48.412;9.514;2022-09-17T05:33:05;0.70;;;0.70;;
12976;SDS011;6553;48.412;9.514;2022-09-17T05:35:31;0.40;;;0.40;;
12976;SDS011;6553;48.412;9.514;2022-09-17T05:38:00;0.65;;;0.50;;
12976;SDS011;6553;48.412;9.514;2022-09-17T05:40:29;0.93;;;0.57;;
12976;SDS011;6553;48.412;9.514;2022-09-17T05:43:00;0.82;;;0.65;;
12976;SDS011;6553;48.412;9.514;2022-09-17T05:45:28;0.50;;;0.50;;
12976;SDS011;6553;48.412;9.514;2022-09-17T05:47:55;0.90;;;0.60;;
12976;SDS011;6553;48.412;9.514;2022-09-17T05:50:23;1.33;;;0.65;;
12976;SDS011;6553;48.412;9.514;2022-09-17T05:52:51;1.17;;;0.50;;
12976;SDS011;6553;48.412;9.514;2022-09-17T05:55:19;0.70;;;0.55;;
12976;SDS011;6553;48.412;9.514;2022-09-17T05:57:47;1.55;;;0.70;;
12976;SDS011;6553;48.412;9.514;2022-09-17T06:00:16;2.13;;;0.88;;
12976;SDS011;6553;48.412;9.514;2022-09-17T06:02:42;0.52;;;0.50;;
12976;SDS011;6553;48.412;9.514;2022-09-17T06:09:14;1.75;;;0.88;;
12976;SDS011;6553;48.412;9.514;2022-09-17T06:11:40;1.15;;;0.70;;
12976;SDS011;6553;48.412;9.514;2022-09-17T06:14:06;1.02;;;0.70;;
12976;SDS011;6553;48.412;9.514;2022-09-17T06:16:33;0.73;;;0.70;;
12976;SDS011;6553;48.412;9.514;2022-09-17T06:18:59;0.90;;;0.90;;
12976;SDS011;6553;48.412;9.514;2022-09-17T06:21:25;1.08;;;0.80;;
12976;SDS011;6553;48.412;9.514;2022-09-17T06:23:51;0.90;;;0.68;;
12976;SDS011;6553;48.412;9.514;2022-09-17T06:26:17;0.82;;;0.50;;
12976;SDS011;6553;48.412;9.514;2022-09-17T06:28:43;1.17;;;0.70;;
12976;SDS011;6553;48.412;9.514;2022-09-17T06:31:10;0.60;;;0.60;;
12976;SDS011;6553;48.412;9.514;2022-09-17T06:33:37;0.63;;;0.60;;
12976;SDS011;6553;48.412;9.514;2022-09-17T06:36:09;1.27;;;0.68;;
12976;SDS011;6553;48.412;9.514;2022-09-17T06:38:36;0.90;;;0.70;;
12976;SDS011;6553;48.412;9.514;2022-09-17T06:41:03;0.85;;;0.80;;
12976;SDS011;6553;48.412;9.514;2022-09-17T06:43:29;1.15;;;0.60;;
12976;SDS011;6553;48.412;9.514;2022-09-17T06:45:59;1.13;;;0.60;;
12976;SDS011;6553;48.412;9.514;2022-09-17T06:48:27;0.77;;;0.60;;
12976;SDS011;6553;48.412;9.514;2022-09-17T06:50:54;0.95;;;0.70;;
12976;SDS011;6553;48.412;9.514;2022-09-17T06:53:25;0.95;;;0.73;;
12976;SDS011;6553;48.412;9.514;2022-09-17T06:55:55;1.00;;;0.60;;
12976;SDS011;6553;48.412;9.514;2022-09-17T06:58:22;1.13;;;0.77;;
12976;SDS011;6553;48.412;9.514;2022-09-17T07:00:49;1.83;;;0.80;;
12976;SDS011;6553;48.412;9.514;2022-09-17T07:03:17;0.60;;;0.60;;
12976;SDS011;6553;48.412;9.514;2022-09-17T07:05:47;1.25;;;0.70;;
12976;SDS011;6553;48.412;9.514;2022-09-17T07:08:13;1.67;;;0.82;;
12976;SDS011;6553;48.412;9.514;2022-09-17T07:10:38;1.33;;;0.80;;
12976;SDS011;6553;48.412;9.514;2022-09-17T07:13:04;2.05;;;1.08;;
12976;SDS011;6553;48.412;9.514;2022-09-17T07:15:30;1.55;;;0.98;;
12976;SDS011;6553;48.412;9.514;2022-09-17T07:17:56;0.98;;;0.80;;
12976;SDS011;6553;48.412;9.514;2022-09-17T07:20:22;1.27;;;0.70;;
12976;SDS011;6553;48.412;9.514;2022-09-17T07:22:55;1.77;;;0.80;;
12976;SDS011;6553;48.412;9.514;2022-09-17T07:25:23;1.13;;;0.70;;
12976;SDS011;6553;48.412;9.514;2022-09-17T07:27:50;2.00;;;0.70;;
12976;SDS011;6553;48.412;9.514;2022-09-17T07:30:17;0.75;;;0.70;;
12976;SDS011;6553;48.412;9.514;2022-09-17T07:32:44;0.77;;;0.60;;
12976;SDS011;6553;48.412;9.514;2022-09-17T07:35:09;1.05;;;0.70;;
12976;SDS011;6553;48.412;9.514;2022-09-17T07:37:36;0.60;;;0.60;;
12976;SDS011;6553;48.412;9.514;2022-09-17T07:40:02;1.05;;;0.88;;
12976;SDS011;6553;48.412;9.514;2022-09-17T07:42:31;1.30;;;0.75;;
12976;SDS011;6553;48.412;9.514;2022-09-17T07:44:57;0.93;;;0.70;;
12976;SDS011;6553;48.412;9.514;2022-09-17T07:47:23;1.95;;;0.88;;
12976;SDS011;6553;48.412;9.514;2022-09-17T07:49:48;0.80;;;0.50;;
12976;SDS011;6553;48.412;9.514;2022-09-17T07:52:14;1.00;;;0.65;;
12976;SDS011;6553;48.412;9.514;2022-09-17T07:54:40;1.52;;;0.95;;
12976;SDS011;6553;48.412;9.514;2022-09-17T07:57:06;1.27;;;0.80;;
12976;SDS011;6553;48.412;9.514;2022-09-17T07:59:32;1.80;;;0.75;;
12976;SDS011;6553;48.412;9.514;2022-09-17T08:01:58;0.95;;;0.75;;
12976;SDS011;6553;48.412;9.514;2022-09-17T08:04:24;1.40;;;1.00;;
12976;SDS011;6553;48.412;9.514;2022-09-17T08:06:49;1.30;;;0.75;;
12976;SDS011;6553;48.412;9.514;2022-09-17T08:09:15;0.68;;;0.65;;
12976;SDS011;6553;48.412;9.514;2022-09-17T08:11:42;0.70;;;0.70;;
12976;SDS011;6553;48.412;9.514;2022-09-17T08:14:09;1.80;;;0.60;;
12976;SDS011;6553;48.412;9.514;2022-09-17T08:16:38;1.08;;;0.60;;
12976;SDS011;6553;48.412;9.514;2022-09-17T08:19:04;1.38;;;0.65;;
12976;SDS011;6553;48.412;9.514;2022-09-17T08:21:30;0.68;;;0.65;;
12976;SDS011;6553;48.412;9.514;2022-09-17T08:23:56;1.15;;;1.00;;
12976;SDS011;6553;48.412;9.514;2022-09-17T08:26:23;1.45;;;0.80;;
12976;SDS011;6553;48.412;9.514;2022-09-17T08:28:52;0.95;;;0.60;;
12976;SDS011;6553;48.412;9.514;2022-09-17T08:31:21;1.25;;;0.77;;
12976;SDS011;6553;48.412;9.514;2022-09-17T08:33:49;1.77;;;0.80;;
12976;SDS011;6553;48.412;9.514;2022-09-17T08:36:15;1.33;;;0.80;;
12976;SDS011;6553;48.412;9.514;2022-09-17T08:38:43;0.70;;;0.63;;
12976;SDS011;6553;48.412;9.514;2022-09-17T08:46:36;1.92;;;0.75;;
12976;SDS011;6553;48.412;9.514;2022-09-17T09:00:22;1.35;;;0.70;;
12976;SDS011;6553;48.412;9.514;2022-09-17T09:05:42;0.60;;;0.60;;
12976;SDS011;6553;48.412;9.514;2022-09-17T09:08:27;0.70;;;0.70;;
12976;SDS011;6553;48.412;9.514;2022-09-17T09:11:10;1.50;;;0.80;;
12976;SDS011;6553;48.412;9.514;2022-09-17T09:13:42;0.82;;;0.70;;
12976;SDS011;6553;48.412;9.514;2022-09-17T09:16:17;2.15;;;0.90;;
12976;SDS011;6553;48.412;9.514;2022-09-17T09:18:53;1.85;;;1.02;;
12976;SDS011;6553;48.412;9.514;2022-09-17T09:21:26;0.52;;;0.50;;
12976;SDS011;6553;48.412;9.514;2022-09-17T09:23:57;0.90;;;0.77;;
12976;SDS011;6553;48.412;9.514;2022-09-17T09:26:45;0.80;;;0.80;;
12976;SDS011;6553;48.412;9.514;2022-09-17T09:35:27;0.70;;;0.50;;
12976;SDS011;6553;48.412;9.514;2022-09-17T09:40:43;1.20;;;0.80;;
12976;SDS011;6553;48.412;9.514;2022-09-17T09:43:42;1.85;;;0.90;;
12976;SDS011;6553;48.412;9.514;2022-09-17T09:50:10;1.83;;;0.70;;
12976;SDS011;6553;48.412;9.514;2022-09-17T09:52:59;1.95;;;1.00;;
12976;SDS011;6553;48.412;9.514;2022-09-17T09:59:01;1.10;;;1.05;;
12976;SDS011;6553;48.412;9.514;2022-09-17T10:01:32;1.30;;;0.80;;
12976;SDS011;6553;48.412;9.514;2022-09-17T10:04:13;3.08;;;0.88;;
12976;SDS011;6553;48.412;9.514;2022-09-17T10:06:47;0.98;;;0.90;;
12976;SDS011;6553;48.412;9.514;2022-09-17T10:09:16;1.50;;;1.00;;
12976;SDS011;6553;48.412;9.514;2022-09-17T10:12:19;1.98;;;0.80;;
12976;SDS011;6553;48.412;9.514;2022-09-17T10:14:42;2.55;;;0.88;;
12976;SDS011;6553;48.412;9.514;2022-09-17T10:22:41;1.38;;;0.80;;
12976;SDS011;6553;48.412;9.514;2022-09-17T10:25:23;2.13;;;1.00;;
12976;SDS011;6553;48.412;9.514;2022-09-17T10:27:56;2.30;;;1.00;;
12976;SDS011;6553;48.412;9.514;2022-09-17T10:30:28;1.65;;;1.00;;
12976;SDS011;6553;48.412;9.514;2022-09-17T10:33:38;2.00;;;1.08;;
12976;SDS011;6553;48.412;9.514;2022-09-17T10:35:53;1.42;;;1.10;;
12976;SDS011;6553;48.412;9.514;2022-09-17T10:38:27;1.10;;;1.00;;
12976;SDS011;6553;48.412;9.514;2022-09-17T10:41:07;1.92;;;1.02;;
12976;SDS011;6553;48.412;9.514;2022-09-17T10:43:39;1.58;;;1.13;;
12976;SDS011;6553;48.412;9.514;2022-09-17T10:46:07;2.33;;;1.10;;
12976;SDS011;6553;48.412;9.514;2022-09-17T10:48:42;2.90;;;1.30;;
12976;SDS011;6553;48.412;9.514;2022-09-17T10:51:22;2.38;;;0.93;;
12976;SDS011;6553;48.412;9.514;2022-09-17T10:53:58;2.63;;;1.42;;
12976;SDS011;6553;48.412;9.514;2022-09-17T10:56:40;2.00;;;1.30;;
12976;SDS011;6553;48.412;9.514;2022-09-17T11:02:03;2.22;;;1.10;;
12976;SDS011;6553;48.412;9.514;2022-09-17T11:04:55;1.65;;;1.27;;
12976;SDS011;6553;48.412;9.514;2022-09-17T11:07:52;2.50;;;1.20;;
12976;SDS011;6553;48.412;9.514;2022-09-17T11:10:56;2.03;;;1.50;;
12976;SDS011;6553;48.412;9.514;2022-09-17T11:25:38;3.25;;;1.20;;
12976;SDS011;6553;48.412;9.514;2022-09-17T11:39:46;1.88;;;1.40;;
12976;SDS011;6553;48.412;9.514;2022-09-17T11:42:23;2.40;;;1.55;;
12976;SDS011;6553;48.412;9.514;2022-09-17T11:44:58;2.38;;;1.48;;
12976;SDS011;6553;48.412;9.514;2022-09-17T11:47:34;1.65;;;1.20;;
12976;SDS011;6553;48.412;9.514;2022-09-17T11:50:28;2.70;;;1.13;;
12976;SDS011;6553;48.412;9.514;2022-09-17T11:56:56;1.88;;;1.20;;
12976;SDS011;6553;48.412;9.514;2022-09-17T12:01:50;2.47;;;1.38;;
12976;SDS011;6553;48.412;9.514;2022-09-17T12:04:37;3.63;;;1.70;;
12976;SDS011;6553;48.412;9.514;2022-09-17T12:18:48;3.90;;;1.42;;
12976;SDS011;6553;48.412;9.514;2022-09-17T12:21:39;3.30;;;1.83;;
12976;SDS011;6553;48.412;9.514;2022-09-17T12:24:32;2.95;;;1.58;;
12976;SDS011;6553;48.412;9.514;2022-09-17T12:43:55;3.47;;;1.48;;
12976;SDS011;6553;48.412;9.514;2022-09-17T12:58:46;2.72;;;1.40;;
12976;SDS011;6553;48.412;9.514;2022-09-17T13:21:24;2.90;;;1.20;;
12976;SDS011;6553;48.412;9.514;2022-09-17T13:24:02;1.58;;;1.33;;
12976;SDS011;6553;48.412;9.514;2022-09-17T13:26:49;5.38;;;1.40;;
12976;SDS011;6553;48.412;9.514;2022-09-17T13:37:30;4.05;;;1.70;;
12976;SDS011;6553;48.412;9.514;2022-09-17T13:39:59;2.88;;;1.90;;
12976;SDS011;6553;48.412;9.514;2022-09-17T13:42:30;2.70;;;1.40;;
12976;SDS011;6553;48.412;9.514;2022-09-17T13:45:10;4.68;;;1.75;;
12976;SDS011;6553;48.412;9.514;2022-09-17T13:47:54;3.45;;;1.75;;
12976;SDS011;6553;48.412;9.514;2022-09-17T13:50:39;3.72;;;1.85;;
12976;SDS011;6553;48.412;9.514;2022-09-17T13:53:16;3.58;;;1.95;;
12976;SDS011;6553;48.412;9.514;2022-09-17T13:55:52;4.05;;;2.13;;
12976;SDS011;6553;48.412;9.514;2022-09-17T13:58:32;4.40;;;2.00;;
12976;SDS011;6553;48.412;9.514;2022-09-17T14:01:04;5.32;;;2.03;;
12976;SDS011;6553;48.412;9.514;2022-09-17T14:13:48;3.38;;;1.95;;
12976;SDS011;6553;48.412;9.514;2022-09-17T14:35:43;4.97;;;2.33;;
12976;SDS011;6553;48.412;9.514;2022-09-17T14:38:33;3.10;;;2.03;;
12976;SDS011;6553;48.412;9.514;2022-09-17T14:46:30;4.28;;;2.05;;
12976;SDS011;6553;48.412;9.514;2022-09-17T14:49:21;3.20;;;1.77;;
12976;SDS011;6553;48.412;9.514;2022-09-17T14:51:53;3.28;;;1.83;;
12976;SDS011;6553;48.412;9.514;2022-09-17T14:54:22;3.38;;;2.03;;
12976;SDS011;6553;48.412;9.514;2022-09-17T14:59:46;3.10;;;2.13;;
12976;SDS011;6553;48.412;9.514;2022-09-17T15:04:57;2.17;;;1.50;;
12976;SDS011;6553;48.412;9.514;2022-09-17T15:07:24;2.97;;;2.00;;
12976;SDS011;6553;48.412;9.514;2022-09-17T15:09:51;4.43;;;1.63;;
12976;SDS011;6553;48.412;9.514;2022-09-17T15:12:20;2.70;;;1.50;;
12976;SDS011;6553;48.412;9.514;2022-09-17T15:14:54;3.97;;;1.65;;
12976;SDS011;6553;48.412;9.514;2022-09-17T15:17:21;5.32;;;2.20;;
12976;SDS011;6553;48.412;9.514;2022-09-17T15:19:49;3.15;;;1.50;;
12976;SDS011;6553;48.412;9.514;2022-09-17T15:22:27;3.05;;;1.42;;
12976;SDS011;6553;48.412;9.514;2022-09-17T15:25:04;3.05;;;1.40;;
12976;SDS011;6553;48.412;9.514;2022-09-17T15:27:42;3.08;;;1.92;;
12976;SDS011;6553;48.412;9.514;2022-09-17T15:30:17;5.18;;;1.63;;
12976;SDS011;6553;48.412;9.514;2022-09-17T15:32:49;2.17;;;1.40;;
12976;SDS011;6553;48.412;9.514;2022-09-17T15:37:55;3.47;;;1.63;;
12976;SDS011;6553;48.412;9.514;2022-09-17T15:43:05;2.35;;;1.58;;
12976;SDS011;6553;48.412;9.514;2022-09-17T15:46:18;1.75;;;1.30;;
12976;SDS011;6553;48.412;9.514;2022-09-17T15:48:53;2.00;;;1.40;;
12976;SDS011;6553;48.412;9.514;2022-09-17T15:51:26;3.75;;;1.48;;
12976;SDS011;6553;48.412;9.514;2022-09-17T15:53:59;2.60;;;1.55;;
12976;SDS011;6553;48.412;9.514;2022-09-17T15:56:29;2.63;;;1.63;;
12976;SDS011;6553;48.412;9.514;2022-09-17T15:59:00;3.00;;;1.83;;
12976;SDS011;6553;48.412;9.514;2022-09-17T16:09:37;2.65;;;1.63;;
12976;SDS011;6553;48.412;9.514;2022-09-17T16:12:15;2.20;;;1.33;;
12976;SDS011;6553;48.412;9.514;2022-09-17T16:14:55;2.90;;;1.23;;
12976;SDS011;6553;48.412;9.514;2022-09-17T16:17:42;1.73;;;1.20;;
12976;SDS011;6553;48.412;9.514;2022-09-17T16:22:40;1.15;;;1.05;;
12976;SDS011;6553;48.412;9.514;2022-09-17T16:25:06;2.42;;;1.65;;
12976;SDS011;6553;48.412;9.514;2022-09-17T16:27:37;2.35;;;1.40;;
12976;SDS011;6553;48.412;9.514;2022-09-17T16:30:13;2.30;;;1.27;;
12976;SDS011;6553;48.412;9.514;2022-09-17T16:32:42;4.20;;;1.40;;
12976;SDS011;6553;48.412;9.514;2022-09-17T16:35:13;2.45;;;1.50;;
12976;SDS011;6553;48.412;9.514;2022-09-17T16:37:41;2.28;;;1.10;;
12976;SDS011;6553;48.412;9.514;2022-09-17T16:40:09;2.70;;;1.67;;
12976;SDS011;6553;48.412;9.514;2022-09-17T16:42:36;3.55;;;1.30;;
12976;SDS011;6553;48.412;9.514;2022-09-17T16:45:04;1.83;;;1.17;;
12976;SDS011;6553;48.412;9.514;2022-09-17T16:47:35;2.15;;;1.27;;
12976;SDS011;6553;48.412;9.514;2022-09-17T16:50:06;2.35;;;1.13;;
12976;SDS011;6553;48.412;9.514;2022-09-17T16:52:39;1.92;;;1.23;;
12976;SDS011;6553;48.412;9.514;2022-09-17T16:55:05;1.25;;;0.95;;
12976;SDS011;6553;48.412;9.514;2022-09-17T16:57:32;2.28;;;1.20;;
12976;SDS011;6553;48.412;9.514;2022-09-17T16:59:58;1.80;;;1.20;;
12976;SDS011;6553;48.412;9.514;2022-09-17T17:02:24;1.63;;;1.13;;
12976;SDS011;6553;48.412;9.514;2022-09-17T17:04:50;2.33;;;1.52;;
12976;SDS011;6553;48.412;9.514;2022-09-17T17:07:16;1.77;;;1.20;;
12976;SDS011;6553;48.412;9.514;2022-09-17T17:09:42;1.90;;;1.17;;
12976;SDS011;6553;48.412;9.514;2022-09-17T17:12:08;1.88;;;1.17;;
12976;SDS011;6553;48.412;9.514;2022-09-17T17:14:34;2.72;;;1.27;;
12976;SDS011;6553;48.412;9.514;2022-09-17T17:16:59;2.58;;;1.23;;
12976;SDS011;6553;48.412;9.514;2022-09-17T17:19:25;2.42;;;1.27;;
12976;SDS011;6553;48.412;9.514;2022-09-17T17:21:51;1.55;;;1.30;;
12976;SDS011;6553;48.412;9.514;2022-09-17T17:24:18;2.35;;;1.40;;
12976;SDS011;6553;48.412;9.514;2022-09-17T17:26:45;2.42;;;1.05;;
12976;SDS011;6553;48.412;9.514;2022-09-17T17:29:12;1.80;;;1.02;;
12976;SDS011;6553;48.412;9.514;2022-09-17T17:31:38;2.63;;;1.30;;
12976;SDS011;6553;48.412;9.514;2022-09-17T17:34:04;1.38;;;1.23;;
12976;SDS011;6553;48.412;9.514;2022-09-17T17:36:31;1.33;;;1.00;;
12976;SDS011;6553;48.412;9.514;2022-09-17T17:38:57;1.25;;;1.10;;
12976;SDS011;6553;48.412;9.514;2022-09-17T17:41:24;1.10;;;1.00;;
12976;SDS011;6553;48.412;9.514;2022-09-17T17:43:54;1.35;;;1.10;;
12976;SDS011;6553;48.412;9.514;2022-09-17T17:46:21;1.77;;;1.00;;
12976;SDS011;6553;48.412;9.514;2022-09-17T17:48:48;1.92;;;1.20;;
12976;SDS011;6553;48.412;9.514;2022-09-17T17:51:15;3.83;;;1.58;;
12976;SDS011;6553;48.412;9.514;2022-09-17T17:53:47;2.38;;;1.30;;
12976;SDS011;6553;48.412;9.514;2022-09-17T17:56:14;1.92;;;1.10;;
12976;SDS011;6553;48.412;9.514;2022-09-17T17:58:41;2.03;;;1.00;;
12976;SDS011;6553;48.412;9.514;2022-09-17T18:01:10;1.58;;;0.93;;
12976;SDS011;6553;48.412;9.514;2022-09-17T18:03:42;2.60;;;1.20;;
12976;SDS011;6553;48.412;9.514;2022-09-17T18:06:08;2.17;;;1.20;;
12976;SDS011;6553;48.412;9.514;2022-09-17T18:08:35;1.20;;;1.10;;
12976;SDS011;6553;48.412;9.514;2022-09-17T18:11:03;1.52;;;1.13;;
12976;SDS011;6553;48.412;9.514;2022-09-17T18:13:32;1.73;;;1.20;;
12976;SDS011;6553;48.412;9.514;2022-09-17T18:15:59;1.25;;;1.00;;
12976;SDS011;6553;48.412;9.514;2022-09-17T18:18:34;2.90;;;1.20;;
12976;SDS011;6553;48.412;9.514;2022-09-17T18:21:03;1.52;;;1.05;;
12976;SDS011;6553;48.412;9.514;2022-09-17T18:23:35;1.65;;;1.30;;
12976;SDS011;6553;48.412;9.514;2022-09-17T18:26:04;2.25;;;1.63;;
12976;SDS011;6553;48.412;9.514;2022-09-17T18:28:33;2.42;;;1.33;;
12976;SDS011;6553;48.412;9.514;2022-09-17T18:31:04;2.05;;;1.35;;
12976;SDS011;6553;48.412;9.514;2022-09-17T18:33:42;1.52;;;1.10;;
12976;SDS011;6553;48.412;9.514;2022-09-17T18:36:08;3.53;;;1.10;;
12976;SDS011;6553;48.412;9.514;2022-09-17T18:38:34;2.20;;;1.23;;
12976;SDS011;6553;48.412;9.514;2022-09-17T18:41:08;2.25;;;0.95;;
12976;SDS011;6553;48.412;9.514;2022-09-17T18:43:36;1.30;;;1.20;;
12976;SDS011;6553;48.412;9.514;2022-09-17T18:46:02;2.10;;;1.40;;
12976;SDS011;6553;48.412;9.514;2022-09-17T18:48:29;1.50;;;1.20;;
12976;SDS011;6553;48.412;9.514;2022-09-17T18:51:08;2.13;;;1.13;;
12976;SDS011;6553;48.412;9.514;2022-09-17T18:53:37;1.02;;;0.82;;
12976;SDS011;6553;48.412;9.514;2022-09-17T18:56:04;1.92;;;1.10;;
12976;SDS011;6553;48.412;9.514;2022-09-17T18:58:38;1.10;;;0.85;;
12976;SDS011;6553;48.412;9.514;2022-09-17T19:01:05;1.98;;;1.00;;
12976;SDS011;6553;48.412;9.514;2022-09-17T19:03:31;1.02;;;0.90;;
12976;SDS011;6553;48.412;9.514;2022-09-17T19:05:58;2.38;;;1.10;;
12976;SDS011;6553;48.412;9.514;2022-09-17T19:08:25;2.85;;;0.90;;
12976;SDS011;6553;48.412;9.514;2022-09-17T19:10:51;1.30;;;0.82;;
12976;SDS011;6553;48.412;9.514;2022-09-17T19:13:17;2.03;;;0.80;;
12976;SDS011;6553;48.412;9.514;2022-09-17T19:15:43;1.48;;;1.08;;
12976;SDS011;6553;48.412;9.514;2022-09-17T19:18:09;1.23;;;0.90;;
12976;SDS011;6553;48.412;9.514;2022-09-17T19:20:34;1.20;;;0.73;;
12976;SDS011;6553;48.412;9.514;2022-09-17T19:23:05;0.98;;;0.80;;
12976;SDS011;6553;48.412;9.514;2022-09-17T19:25:35;1.00;;;1.00;;
12976;SDS011;6553;48.412;9.514;2022-09-17T19:28:02;0.80;;;0.70;;
12976;SDS011;6553;48.412;9.514;2022-09-17T19:30:29;1.83;;;0.82;;
12976;SDS011;6553;48.412;9.514;2022-09-17T19:32:59;1.67;;;1.13;;
12976;SDS011;6553;48.412;9.514;2022-09-17T19:35:25;1.65;;;1.02;;
12976;SDS011;6553;48.412;9.514;2022-09-17T19:37:51;1.80;;;0.90;;
12976;SDS011;6553;48.412;9.514;2022-09-17T19:40:21;1.98;;;1.17;;
12976;SDS011;6553;48.412;9.514;2022-09-17T19:42:50;1.77;;;0.95;;
12976;SDS011;6553;48.412;9.514;2022-09-17T19:45:18;2.20;;;1.02;;
12976;SDS011;6553;48.412;9.514;2022-09-17T19:47:49;1.88;;;1.05;;
12976;SDS011;6553;48.412;9.514;2022-09-17T19:50:20;1.20;;;0.80;;